Hyundai Forward — 3EJY9 — position and weather

sailwx.info

Track history (hours):
 
Tides and Currents Weather Stations Pressure Air Temp Water Temp Dewpoint Dewpoint Depression Visibility Wind Speed Wind Dir Waves Ship Positions

Hyundai Forward

Last reported at 2015-May-01 07:13 UTC. Time now 2015-May-07 09:39 UTC.
Position N 27°49' W 118°03'.

Length 295 m; draft 12 m.

Type: Cargo ship. MMSI: 372652000.

Date/timePositionNaut miles runAvg speedWind from/ knotsBaromVisibWave heightAir tempDewpointWater temp
2015-May-01 07:13N 27°49' W 118°03'1620.0
2015-May-01 06:26N 27°59' W 118°17'5719.7
2015-May-01 03:33N 28°34' W 119°07'15619.4
2015-Apr-30 19:33N 30°12' W 121°26'2019.8
2015-Apr-30 18:33N 30°23' W 121°44'2119.7
2015-Apr-30 17:29N 30°36' W 122°04'1819.5
2015-Apr-30 16:33N 30°46' W 122°22'1919.4
2015-Apr-30 15:33N 30°56' W 122°41'2019.5
2015-Apr-30 14:33N 31°06' W 123°00'2119.5
2015-Apr-30 13:30N 31°17' W 123°20'1819.2
2015-Apr-30 12:33N 31°27' W 123°38'2119.4
2015-Apr-30 11:29N 31°38' W 123°58'1919.1
2015-Apr-30 10:29N 31°49' W 124°18'1819.4
2015-Apr-30 09:33N 31°58' W 124°36'2019.3
2015-Apr-30 08:32N 32°09' W 124°55'2019.2
2015-Apr-30 07:31N 32°19' W 125°15'17219.0
2015-Apr-29 22:27N 33°53' W 128°08'  
Track history (hours):
 
Tides and Currents Weather Stations Pressure Air Temp Water Temp Dewpoint Dewpoint Depression Visibility Wind Speed Wind Dir Waves Ship Positions

Hyundai Forward

Last reported at 2015-May-01 07:13 UTC. Time now 2015-May-07 09:40 UTC.
Position N 27°49' W 118°03'.

Length 295 m; draft 12 m.

Type: Cargo ship. MMSI: 372652000.

Date/timePositionNaut miles runAvg speedWind from/ knotsBaromVisibWave heightAir tempDewpointWater temp
2015-May-01 07:13N 27°49' W 118°03'1620.0
2015-May-01 06:26N 27°59' W 118°17'5719.7
2015-May-01 03:33N 28°34' W 119°07'15619.4
2015-Apr-30 19:33N 30°12' W 121°26'2019.8
2015-Apr-30 18:33N 30°23' W 121°44'2119.7
2015-Apr-30 17:29N 30°36' W 122°04'1819.5
2015-Apr-30 16:33N 30°46' W 122°22'1919.4
2015-Apr-30 15:33N 30°56' W 122°41'2019.5
2015-Apr-30 14:33N 31°06' W 123°00'2119.5
2015-Apr-30 13:30N 31°17' W 123°20'1819.2
2015-Apr-30 12:33N 31°27' W 123°38'2119.4
2015-Apr-30 11:29N 31°38' W 123°58'1919.1
2015-Apr-30 10:29N 31°49' W 124°18'1819.4
2015-Apr-30 09:33N 31°58' W 124°36'2019.3
2015-Apr-30 08:32N 32°09' W 124°55'2019.2
2015-Apr-30 07:31N 32°19' W 125°15'17219.0
2015-Apr-29 22:27N 33°53' W 128°08'  

Dump ship's entire track history